sensor_id;sensor_type;location;lat;lon;timestamp;temperature;humidity
28552;DHT22;15752;49.560;8.708;2023-03-08T00:01:23;9.50;91.40
28552;DHT22;15752;49.560;8.708;2023-03-08T00:03:52;9.60;91.50
28552;DHT22;15752;49.560;8.708;2023-03-08T00:06:22;9.50;91.60
28552;DHT22;15752;49.560;8.708;2023-03-08T00:08:54;9.40;91.90
28552;DHT22;15752;49.560;8.708;2023-03-08T00:11:23;9.30;91.50
28552;DHT22;15752;49.560;8.708;2023-03-08T00:13:53;9.30;91.50
28552;DHT22;15752;49.560;8.708;2023-03-08T00:16:22;9.30;91.40
28552;DHT22;15752;49.560;8.708;2023-03-08T00:18:51;9.50;91.40
28552;DHT22;15752;49.560;8.708;2023-03-08T00:21:19;9.40;91.30
28552;DHT22;15752;49.560;8.708;2023-03-08T00:23:50;9.50;91.50
28552;DHT22;15752;49.560;8.708;2023-03-08T00:26:19;9.30;91.40
28552;DHT22;15752;49.560;8.708;2023-03-08T00:28:48;9.60;91.40
28552;DHT22;15752;49.560;8.708;2023-03-08T00:31:17;9.60;91.30
28552;DHT22;15752;49.560;8.708;2023-03-08T00:33:48;9.60;91.40
28552;DHT22;15752;49.560;8.708;2023-03-08T00:36:19;9.30;91.50
28552;DHT22;15752;49.560;8.708;2023-03-08T00:38:48;9.60;91.40
28552;DHT22;15752;49.560;8.708;2023-03-08T00:41:17;9.60;91.40
28552;DHT22;15752;49.560;8.708;2023-03-08T00:43:45;9.50;91.50
28552;DHT22;15752;49.560;8.708;2023-03-08T00:46:14;9.40;91.20
28552;DHT22;15752;49.560;8.708;2023-03-08T00:48:45;9.30;91.20
28552;DHT22;15752;49.560;8.708;2023-03-08T00:51:15;9.20;91.00
28552;DHT22;15752;49.560;8.708;2023-03-08T00:53:46;9.30;91.30
28552;DHT22;15752;49.560;8.708;2023-03-08T00:56:15;9.50;91.30
28552;DHT22;15752;49.560;8.708;2023-03-08T00:58:44;9.50;91.10
28552;DHT22;15752;49.560;8.708;2023-03-08T01:01:14;9.60;91.10
28552;DHT22;15752;49.560;8.708;2023-03-08T01:03:47;9.20;91.20
28552;DHT22;15752;49.560;8.708;2023-03-08T01:06:16;9.50;91.10
28552;DHT22;15752;49.560;8.708;2023-03-08T01:08:44;9.20;91.20
28552;DHT22;15752;49.560;8.708;2023-03-08T01:11:15;9.50;91.30
28552;DHT22;15752;49.560;8.708;2023-03-08T01:13:45;9.20;91.20
28552;DHT22;15752;49.560;8.708;2023-03-08T01:16:15;9.50;91.40
28552;DHT22;15752;49.560;8.708;2023-03-08T01:18:44;9.20;91.40
28552;DHT22;15752;49.560;8.708;2023-03-08T01:21:14;9.50;91.00
28552;DHT22;15752;49.560;8.708;2023-03-08T01:23:43;9.20;91.10
28552;DHT22;15752;49.560;8.708;2023-03-08T01:26:13;9.40;91.10
28552;DHT22;15752;49.560;8.708;2023-03-08T01:28:42;9.20;91.30
28552;DHT22;15752;49.560;8.708;2023-03-08T01:31:13;9.40;91.40
28552;DHT22;15752;49.560;8.708;2023-03-08T01:33:43;9.20;91.50
28552;DHT22;15752;49.560;8.708;2023-03-08T01:36:16;9.20;91.40
28552;DHT22;15752;49.560;8.708;2023-03-08T01:38:46;9.30;91.50
28552;DHT22;15752;49.560;8.708;2023-03-08T01:41:16;9.20;91.50
28552;DHT22;15752;49.560;8.708;2023-03-08T01:43:46;9.40;91.50
28552;DHT22;15752;49.560;8.708;2023-03-08T01:46:22;9.40;91.60
28552;DHT22;15752;49.560;8.708;2023-03-08T01:49:00;9.10;91.50
28552;DHT22;15752;49.560;8.708;2023-03-08T01:51:40;9.10;91.50
28552;DHT22;15752;49.560;8.708;2023-03-08T01:54:13;9.30;91.40
28552;DHT22;15752;49.560;8.708;2023-03-08T01:56:44;9.10;91.40
28552;DHT22;15752;49.560;8.708;2023-03-08T01:59:14;9.00;91.40
28552;DHT22;15752;49.560;8.708;2023-03-08T02:01:44;9.40;91.60
28552;DHT22;15752;49.560;8.708;2023-03-08T02:04:12;9.10;91.30
28552;DHT22;15752;49.560;8.708;2023-03-08T02:06:44;9.00;91.20
28552;DHT22;15752;49.560;8.708;2023-03-08T02:09:17;9.30;91.10
28552;DHT22;15752;49.560;8.708;2023-03-08T02:11:47;9.00;91.30
28552;DHT22;15752;49.560;8.708;2023-03-08T02:14:16;9.20;91.50
28552;DHT22;15752;49.560;8.708;2023-03-08T02:16:48;9.10;91.10
28552;DHT22;15752;49.560;8.708;2023-03-08T02:19:21;9.00;91.20
28552;DHT22;15752;49.560;8.708;2023-03-08T02:21:53;8.90;91.20
28552;DHT22;15752;49.560;8.708;2023-03-08T02:24:24;9.20;91.30
28552;DHT22;15752;49.560;8.708;2023-03-08T02:26:57;9.20;91.40
28552;DHT22;15752;49.560;8.708;2023-03-08T02:29:28;8.90;91.30
28552;DHT22;15752;49.560;8.708;2023-03-08T02:31:57;9.00;91.20
28552;DHT22;15752;49.560;8.708;2023-03-08T02:34:25;8.90;91.10
28552;DHT22;15752;49.560;8.708;2023-03-08T02:36:53;9.00;91.10
28552;DHT22;15752;49.560;8.708;2023-03-08T02:39:23;8.90;91.10
28552;DHT22;15752;49.560;8.708;2023-03-08T02:41:54;9.10;91.20
28552;DHT22;15752;49.560;8.708;2023-03-08T02:44:22;9.00;91.30
28552;DHT22;15752;49.560;8.708;2023-03-08T02:46:52;8.90;91.20
28552;DHT22;15752;49.560;8.708;2023-03-08T02:49:21;8.90;91.70
28552;DHT22;15752;49.560;8.708;2023-03-08T02:51:50;8.90;91.20
28552;DHT22;15752;49.560;8.708;2023-03-08T02:54:20;8.90;91.40
28552;DHT22;15752;49.560;8.708;2023-03-08T02:56:49;9.10;91.10
28552;DHT22;15752;49.560;8.708;2023-03-08T02:59:18;8.90;91.20
28552;DHT22;15752;49.560;8.708;2023-03-08T03:01:50;8.90;91.30
28552;DHT22;15752;49.560;8.708;2023-03-08T03:04:18;9.20;91.20
28552;DHT22;15752;49.560;8.708;2023-03-08T03:06:46;8.90;91.60
28552;DHT22;15752;49.560;8.708;2023-03-08T03:09:15;8.90;91.10
28552;DHT22;15752;49.560;8.708;2023-03-08T03:11:44;8.90;91.30
28552;DHT22;15752;49.560;8.708;2023-03-08T03:14:13;8.90;91.50
28552;DHT22;15752;49.560;8.708;2023-03-08T03:16:44;8.90;91.10
28552;DHT22;15752;49.560;8.708;2023-03-08T03:19:12;8.90;91.70
28552;DHT22;15752;49.560;8.708;2023-03-08T03:21:41;8.80;91.30
28552;DHT22;15752;49.560;8.708;2023-03-08T03:24:09;8.90;91.20
28552;DHT22;15752;49.560;8.708;2023-03-08T03:26:44;9.10;91.30
28552;DHT22;15752;49.560;8.708;2023-03-08T03:29:13;8.90;91.30
28552;DHT22;15752;49.560;8.708;2023-03-08T03:31:44;8.80;91.30
28552;DHT22;15752;49.560;8.708;2023-03-08T03:34:13;8.80;91.20
28552;DHT22;15752;49.560;8.708;2023-03-08T03:36:43;8.90;91.20
28552;DHT22;15752;49.560;8.708;2023-03-08T03:39:11;8.90;90.90
28552;DHT22;15752;49.560;8.708;2023-03-08T03:41:41;8.80;91.10
28552;DHT22;15752;49.560;8.708;2023-03-08T03:44:13;9.00;91.40
28552;DHT22;15752;49.560;8.708;2023-03-08T03:46:44;9.00;91.40
28552;DHT22;15752;49.560;8.708;2023-03-08T03:49:16;8.70;91.30
28552;DHT22;15752;49.560;8.708;2023-03-08T03:51:46;8.70;91.30
28552;DHT22;15752;49.560;8.708;2023-03-08T03:54:23;8.90;91.40
28552;DHT22;15752;49.560;8.708;2023-03-08T03:56:52;8.90;91.00
28552;DHT22;15752;49.560;8.708;2023-03-08T03:59:28;8.70;91.00
28552;DHT22;15752;49.560;8.708;2023-03-08T04:01:56;9.00;91.10
28552;DHT22;15752;49.560;8.708;2023-03-08T04:04:32;8.70;91.10
28552;DHT22;15752;49.560;8.708;2023-03-08T04:07:02;8.70;91.60
28552;DHT22;15752;49.560;8.708;2023-03-08T04:09:36;8.60;91.00
28552;DHT22;15752;49.560;8.708;2023-03-08T04:12:15;8.90;91.40
28552;DHT22;15752;49.560;8.708;2023-03-08T04:14:45;8.80;91.30
28552;DHT22;15752;49.560;8.708;2023-03-08T04:17:15;8.80;91.00
28552;DHT22;15752;49.560;8.708;2023-03-08T04:19:48;8.80;91.10
28552;DHT22;15752;49.560;8.708;2023-03-08T04:22:18;8.90;91.30
28552;DHT22;15752;49.560;8.708;2023-03-08T04:24:51;8.60;91.00
28552;DHT22;15752;49.560;8.708;2023-03-08T04:27:26;8.60;91.30
28552;DHT22;15752;49.560;8.708;2023-03-08T04:29:55;8.60;91.60
28552;DHT22;15752;49.560;8.708;2023-03-08T04:32:25;8.60;91.40
28552;DHT22;15752;49.560;8.708;2023-03-08T04:34:56;8.50;91.40
28552;DHT22;15752;49.560;8.708;2023-03-08T04:37:26;8.60;91.50
28552;DHT22;15752;49.560;8.708;2023-03-08T04:40:03;8.60;91.60
28552;DHT22;15752;49.560;8.708;2023-03-08T04:42:41;8.60;91.60
28552;DHT22;15752;49.560;8.708;2023-03-08T04:45:14;8.60;91.80
28552;DHT22;15752;49.560;8.708;2023-03-08T04:47:43;8.60;91.70
28552;DHT22;15752;49.560;8.708;2023-03-08T04:50:12;8.60;91.70
28552;DHT22;15752;49.560;8.708;2023-03-08T04:52:41;8.50;91.60
28552;DHT22;15752;49.560;8.708;2023-03-08T04:55:10;8.60;91.70
28552;DHT22;15752;49.560;8.708;2023-03-08T04:57:39;8.60;91.60
28552;DHT22;15752;49.560;8.708;2023-03-08T05:00:08;8.70;91.60
28552;DHT22;15752;49.560;8.708;2023-03-08T05:02:42;8.60;91.60
28552;DHT22;15752;49.560;8.708;2023-03-08T05:05:15;8.70;91.40
28552;DHT22;15752;49.560;8.708;2023-03-08T05:07:44;8.60;91.50
28552;DHT22;15752;49.560;8.708;2023-03-08T05:10:12;8.50;91.40
28552;DHT22;15752;49.560;8.708;2023-03-08T05:12:41;8.50;91.40
28552;DHT22;15752;49.560;8.708;2023-03-08T05:15:10;8.50;91.40
28552;DHT22;15752;49.560;8.708;2023-03-08T05:17:38;8.50;91.40
28552;DHT22;15752;49.560;8.708;2023-03-08T05:20:09;8.50;91.40
28552;DHT22;15752;49.560;8.708;2023-03-08T05:22:40;8.50;91.50
28552;DHT22;15752;49.560;8.708;2023-03-08T05:25:29;8.60;91.50
28552;DHT22;15752;49.560;8.708;2023-03-08T05:27:59;8.70;91.50
28552;DHT22;15752;49.560;8.708;2023-03-08T05:30:27;8.50;91.60
28552;DHT22;15752;49.560;8.708;2023-03-08T05:32:56;8.50;91.50
28552;DHT22;15752;49.560;8.708;2023-03-08T05:35:26;8.50;91.70
28552;DHT22;15752;49.560;8.708;2023-03-08T05:37:55;8.50;91.70
28552;DHT22;15752;49.560;8.708;2023-03-08T05:40:24;8.50;91.80
28552;DHT22;15752;49.560;8.708;2023-03-08T05:42:53;8.60;91.90
28552;DHT22;15752;49.560;8.708;2023-03-08T05:45:24;8.50;91.90
28552;DHT22;15752;49.560;8.708;2023-03-08T05:47:54;8.50;91.90
28552;DHT22;15752;49.560;8.708;2023-03-08T05:50:23;8.70;91.80
28552;DHT22;15752;49.560;8.708;2023-03-08T05:52:54;8.60;91.80
28552;DHT22;15752;49.560;8.708;2023-03-08T05:55:27;8.60;91.90
28552;DHT22;15752;49.560;8.708;2023-03-08T05:57:57;8.50;91.60
28552;DHT22;15752;49.560;8.708;2023-03-08T06:00:26;8.60;91.60
28552;DHT22;15752;49.560;8.708;2023-03-08T06:02:57;8.50;91.60
28552;DHT22;15752;49.560;8.708;2023-03-08T06:05:32;8.60;91.80
28552;DHT22;15752;49.560;8.708;2023-03-08T06:08:02;8.50;91.70
28552;DHT22;15752;49.560;8.708;2023-03-08T06:10:32;8.50;91.70
28552;DHT22;15752;49.560;8.708;2023-03-08T06:13:00;8.50;91.80
28552;DHT22;15752;49.560;8.708;2023-03-08T06:15:29;8.50;91.70
28552;DHT22;15752;49.560;8.708;2023-03-08T06:17:57;8.40;91.80
28552;DHT22;15752;49.560;8.708;2023-03-08T06:20:26;8.50;91.80
28552;DHT22;15752;49.560;8.708;2023-03-08T06:22:55;8.60;91.90
28552;DHT22;15752;49.560;8.708;2023-03-08T06:25:25;8.60;92.00
28552;DHT22;15752;49.560;8.708;2023-03-08T06:27:54;8.60;92.00
28552;DHT22;15752;49.560;8.708;2023-03-08T06:30:31;8.50;92.00
28552;DHT22;15752;49.560;8.708;2023-03-08T06:33:02;8.50;92.10
28552;DHT22;15752;49.560;8.708;2023-03-08T06:35:31;8.50;92.20
28552;DHT22;15752;49.560;8.708;2023-03-08T06:38:01;8.50;92.20
28552;DHT22;15752;49.560;8.708;2023-03-08T06:40:32;8.50;92.20
28552;DHT22;15752;49.560;8.708;2023-03-08T06:43:01;8.50;92.30
28552;DHT22;15752;49.560;8.708;2023-03-08T06:45:30;8.50;92.30
28552;DHT22;15752;49.560;8.708;2023-03-08T06:48:00;8.50;92.20
28552;DHT22;15752;49.560;8.708;2023-03-08T06:50:29;8.50;92.20
28552;DHT22;15752;49.560;8.708;2023-03-08T06:52:57;8.60;92.20
28552;DHT22;15752;49.560;8.708;2023-03-08T06:55:42;8.50;92.10
28552;DHT22;15752;49.560;8.708;2023-03-08T06:58:10;8.50;92.20
28552;DHT22;15752;49.560;8.708;2023-03-08T07:00:39;8.50;92.10
28552;DHT22;15752;49.560;8.708;2023-03-08T07:03:07;8.60;92.20
28552;DHT22;15752;49.560;8.708;2023-03-08T07:05:36;8.60;92.20
28552;DHT22;15752;49.560;8.708;2023-03-08T07:08:05;8.50;92.10
28552;DHT22;15752;49.560;8.708;2023-03-08T07:10:33;8.70;92.20
28552;DHT22;15752;49.560;8.708;2023-03-08T07:13:03;8.50;92.20
28552;DHT22;15752;49.560;8.708;2023-03-08T07:15:32;8.50;92.30
28552;DHT22;15752;49.560;8.708;2023-03-08T07:18:02;8.50;92.20
28552;DHT22;15752;49.560;8.708;2023-03-08T07:20:30;8.50;92.40
28552;DHT22;15752;49.560;8.708;2023-03-08T07:22:59;8.60;92.40
28552;DHT22;15752;49.560;8.708;2023-03-08T07:25:27;8.50;92.50
28552;DHT22;15752;49.560;8.708;2023-03-08T07:27:57;8.50;92.40
28552;DHT22;15752;49.560;8.708;2023-03-08T07:30:27;8.50;92.50
28552;DHT22;15752;49.560;8.708;2023-03-08T07:32:56;8.50;92.60
28552;DHT22;15752;49.560;8.708;2023-03-08T07:35:24;8.70;92.60
28552;DHT22;15752;49.560;8.708;2023-03-08T07:37:52;8.50;92.70
28552;DHT22;15752;49.560;8.708;2023-03-08T07:40:21;8.60;92.80
28552;DHT22;15752;49.560;8.708;2023-03-08T07:42:49;8.50;92.90
28552;DHT22;15752;49.560;8.708;2023-03-08T07:45:36;8.50;93.00
28552;DHT22;15752;49.560;8.708;2023-03-08T07:48:05;8.50;93.10
28552;DHT22;15752;49.560;8.708;2023-03-08T07:50:34;8.60;93.20
28552;DHT22;15752;49.560;8.708;2023-03-08T07:53:02;8.50;93.30
28552;DHT22;15752;49.560;8.708;2023-03-08T07:55:31;8.70;93.40
28552;DHT22;15752;49.560;8.708;2023-03-08T07:57:59;8.40;93.40
28552;DHT22;15752;49.560;8.708;2023-03-08T08:00:28;8.50;93.40
28552;DHT22;15752;49.560;8.708;2023-03-08T08:02:57;8.40;93.60
28552;DHT22;15752;49.560;8.708;2023-03-08T08:05:26;8.40;93.70
28552;DHT22;15752;49.560;8.708;2023-03-08T08:07:54;8.40;93.80
28552;DHT22;15752;49.560;8.708;2023-03-08T08:10:23;8.40;93.80
28552;DHT22;15752;49.560;8.708;2023-03-08T08:12:51;8.40;94.00
28552;DHT22;15752;49.560;8.708;2023-03-08T08:15:19;8.30;93.90
28552;DHT22;15752;49.560;8.708;2023-03-08T08:17:51;8.30;93.90
28552;DHT22;15752;49.560;8.708;2023-03-08T08:20:21;8.50;94.10
28552;DHT22;15752;49.560;8.708;2023-03-08T08:22:51;8.30;94.00
28552;DHT22;15752;49.560;8.708;2023-03-08T08:25:20;8.30;94.10
28552;DHT22;15752;49.560;8.708;2023-03-08T08:27:49;8.30;94.30
28552;DHT22;15752;49.560;8.708;2023-03-08T08:30:17;8.40;94.20
28552;DHT22;15752;49.560;8.708;2023-03-08T08:32:46;8.30;94.30
28552;DHT22;15752;49.560;8.708;2023-03-08T08:35:15;8.30;94.30
28552;DHT22;15752;49.560;8.708;2023-03-08T08:37:44;8.20;94.40
28552;DHT22;15752;49.560;8.708;2023-03-08T08:40:13;8.20;94.60
28552;DHT22;15752;49.560;8.708;2023-03-08T08:42:41;8.20;94.50
28552;DHT22;15752;49.560;8.708;2023-03-08T08:45:10;8.20;94.50
28552;DHT22;15752;49.560;8.708;2023-03-08T08:47:38;8.20;95.00
28552;DHT22;15752;49.560;8.708;2023-03-08T08:50:08;8.20;94.70
28552;DHT22;15752;49.560;8.708;2023-03-08T08:52:39;8.20;94.80
28552;DHT22;15752;49.560;8.708;2023-03-08T08:55:09;8.20;94.70
28552;DHT22;15752;49.560;8.708;2023-03-08T08:57:38;8.20;94.90
28552;DHT22;15752;49.560;8.708;2023-03-08T09:00:07;8.10;94.80
28552;DHT22;15752;49.560;8.708;2023-03-08T09:02:37;8.20;94.90
28552;DHT22;15752;49.560;8.708;2023-03-08T09:05:05;8.20;94.80
28552;DHT22;15752;49.560;8.708;2023-03-08T09:07:34;8.20;95.00
28552;DHT22;15752;49.560;8.708;2023-03-08T09:10:06;8.20;94.90
28552;DHT22;15752;49.560;8.708;2023-03-08T09:12:38;8.20;95.20
28552;DHT22;15752;49.560;8.708;2023-03-08T09:15:07;8.20;95.50
28552;DHT22;15752;49.560;8.708;2023-03-08T09:17:37;8.20;95.10
28552;DHT22;15752;49.560;8.708;2023-03-08T09:20:07;8.20;95.20
28552;DHT22;15752;49.560;8.708;2023-03-08T09:22:36;8.10;95.20
28552;DHT22;15752;49.560;8.708;2023-03-08T09:25:05;8.20;95.30
28552;DHT22;15752;49.560;8.708;2023-03-08T09:27:35;8.10;95.20
28552;DHT22;15752;49.560;8.708;2023-03-08T09:30:09;8.10;95.20
28552;DHT22;15752;49.560;8.708;2023-03-08T09:32:38;8.10;95.50
28552;DHT22;15752;49.560;8.708;2023-03-08T09:35:07;8.10;95.40
28552;DHT22;15752;49.560;8.708;2023-03-08T09:37:36;8.10;95.50
28552;DHT22;15752;49.560;8.708;2023-03-08T09:40:05;8.10;95.40
28552;DHT22;15752;49.560;8.708;2023-03-08T09:42:35;8.10;95.60
28552;DHT22;15752;49.560;8.708;2023-03-08T09:45:17;8.10;95.60
28552;DHT22;15752;49.560;8.708;2023-03-08T09:47:51;8.00;96.00
28552;DHT22;15752;49.560;8.708;2023-03-08T09:50:40;8.10;95.80
28552;DHT22;15752;49.560;8.708;2023-03-08T09:53:16;8.10;96.00
28552;DHT22;15752;49.560;8.708;2023-03-08T09:55:53;8.00;96.00
28552;DHT22;15752;49.560;8.708;2023-03-08T09:58:31;8.00;96.00
28552;DHT22;15752;49.560;8.708;2023-03-08T10:01:14;8.00;96.10
28552;DHT22;15752;49.560;8.708;2023-03-08T10:03:59;8.00;96.20
28552;DHT22;15752;49.560;8.708;2023-03-08T10:06:59;8.00;96.30
28552;DHT22;15752;49.560;8.708;2023-03-08T10:09:54;8.10;96.10
28552;DHT22;15752;49.560;8.708;2023-03-08T10:12:34;8.10;96.20
28552;DHT22;15752;49.560;8.708;2023-03-08T10:15:14;8.10;96.20
28552;DHT22;15752;49.560;8.708;2023-03-08T10:17:48;8.10;96.30
28552;DHT22;15752;49.560;8.708;2023-03-08T10:20:23;8.30;96.20
28552;DHT22;15752;49.560;8.708;2023-03-08T10:22:56;8.10;96.20
28552;DHT22;15752;49.560;8.708;2023-03-08T10:25:27;8.20;96.50
28552;DHT22;15752;49.560;8.708;2023-03-08T10:27:59;8.10;96.40
28552;DHT22;15752;49.560;8.708;2023-03-08T10:30:33;8.40;96.50
28552;DHT22;15752;49.560;8.708;2023-03-08T10:33:08;8.30;96.50
28552;DHT22;15752;49.560;8.708;2023-03-08T10:35:52;8.10;96.60
28552;DHT22;15752;49.560;8.708;2023-03-08T10:38:26;8.20;96.70
28552;DHT22;15752;49.560;8.708;2023-03-08T10:41:00;8.40;96.60
28552;DHT22;15752;49.560;8.708;2023-03-08T10:43:31;8.40;96.70
28552;DHT22;15752;49.560;8.708;2023-03-08T10:46:03;8.50;96.70
28552;DHT22;15752;49.560;8.708;2023-03-08T10:48:34;8.20;96.60
28552;DHT22;15752;49.560;8.708;2023-03-08T10:51:05;8.20;96.50
28552;DHT22;15752;49.560;8.708;2023-03-08T10:53:51;8.30;96.80
28552;DHT22;15752;49.560;8.708;2023-03-08T10:56:24;8.30;97.10
28552;DHT22;15752;49.560;8.708;2023-03-08T10:58:55;8.30;97.10
28552;DHT22;15752;49.560;8.708;2023-03-08T11:01:26;8.30;97.00
28552;DHT22;15752;49.560;8.708;2023-03-08T11:04:02;8.30;97.00
28552;DHT22;15752;49.560;8.708;2023-03-08T11:06:33;8.60;97.40
28552;DHT22;15752;49.560;8.708;2023-03-08T11:09:03;8.40;97.40
28552;DHT22;15752;49.560;8.708;2023-03-08T11:11:40;8.40;97.50
28552;DHT22;15752;49.560;8.708;2023-03-08T11:14:10;8.40;97.90
28552;DHT22;15752;49.560;8.708;2023-03-08T11:16:52;8.60;97.70
28552;DHT22;15752;49.560;8.708;2023-03-08T11:19:35;8.70;98.20
28552;DHT22;15752;49.560;8.708;2023-03-08T11:22:28;8.50;98.10
28552;DHT22;15752;49.560;8.708;2023-03-08T11:25:14;8.60;98.30
28552;DHT22;15752;49.560;8.708;2023-03-08T11:27:57;8.60;98.20
28552;DHT22;15752;49.560;8.708;2023-03-08T11:30:38;8.60;98.30
28552;DHT22;15752;49.560;8.708;2023-03-08T11:33:32;8.60;98.30
28552;DHT22;15752;49.560;8.708;2023-03-08T11:36:13;8.70;98.60
28552;DHT22;15752;49.560;8.708;2023-03-08T11:38:50;8.70;98.50
28552;DHT22;15752;49.560;8.708;2023-03-08T11:41:25;8.70;98.40
28552;DHT22;15752;49.560;8.708;2023-03-08T11:44:22;8.70;98.40
28552;DHT22;15752;49.560;8.708;2023-03-08T11:47:30;8.80;98.80
28552;DHT22;15752;49.560;8.708;2023-03-08T11:50:21;8.90;98.80
28552;DHT22;15752;49.560;8.708;2023-03-08T11:53:00;8.90;98.50
28552;DHT22;15752;49.560;8.708;2023-03-08T11:55:42;8.90;98.90
28552;DHT22;15752;49.560;8.708;2023-03-08T11:58:21;9.20;99.00
28552;DHT22;15752;49.560;8.708;2023-03-08T12:00:55;9.00;98.90
28552;DHT22;15752;49.560;8.708;2023-03-08T12:03:30;9.10;99.20
28552;DHT22;15752;49.560;8.708;2023-03-08T12:06:04;9.10;98.90
28552;DHT22;15752;49.560;8.708;2023-03-08T12:08:58;9.10;98.90
28552;DHT22;15752;49.560;8.708;2023-03-08T12:11:31;9.10;98.80
28552;DHT22;15752;49.560;8.708;2023-03-08T12:14:08;9.20;98.90
28552;DHT22;15752;49.560;8.708;2023-03-08T12:16:45;9.50;99.10
28552;DHT22;15752;49.560;8.708;2023-03-08T12:19:23;9.60;99.30
28552;DHT22;15752;49.560;8.708;2023-03-08T12:22:03;9.30;99.30
28552;DHT22;15752;49.560;8.708;2023-03-08T12:24:47;9.60;99.50
28552;DHT22;15752;49.560;8.708;2023-03-08T12:27:23;9.40;99.50
28552;DHT22;15752;49.560;8.708;2023-03-08T12:30:05;9.60;99.40
28552;DHT22;15752;49.560;8.708;2023-03-08T12:32:43;9.50;99.60
28552;DHT22;15752;49.560;8.708;2023-03-08T12:35:28;9.80;99.20
28552;DHT22;15752;49.560;8.708;2023-03-08T12:38:00;9.60;99.70
28552;DHT22;15752;49.560;8.708;2023-03-08T12:40:36;9.60;99.30
28552;DHT22;15752;49.560;8.708;2023-03-08T12:43:09;9.60;99.60
28552;DHT22;15752;49.560;8.708;2023-03-08T12:48:22;9.70;99.40
28552;DHT22;15752;49.560;8.708;2023-03-08T12:51:02;9.90;99.90
28552;DHT22;15752;49.560;8.708;2023-03-08T12:53:36;10.10;99.90
28552;DHT22;15752;49.560;8.708;2023-03-08T12:56:24;9.80;99.60
28552;DHT22;15752;49.560;8.708;2023-03-08T12:58:58;9.90;99.90
28552;DHT22;15752;49.560;8.708;2023-03-08T13:01:37;9.90;99.90
28552;DHT22;15752;49.560;8.708;2023-03-08T13:04:25;10.00;99.90
28552;DHT22;15752;49.560;8.708;2023-03-08T13:07:18;10.10;99.90
28552;DHT22;15752;49.560;8.708;2023-03-08T13:09:55;10.10;99.90
28552;DHT22;15752;49.560;8.708;2023-03-08T13:12:39;10.10;99.90
28552;DHT22;15752;49.560;8.708;2023-03-08T13:15:21;10.30;99.90
28552;DHT22;15752;49.560;8.708;2023-03-08T13:17:57;10.30;99.80
28552;DHT22;15752;49.560;8.708;2023-03-08T13:20:48;10.30;99.90
28552;DHT22;15752;49.560;8.708;2023-03-08T13:23:31;10.40;99.90
28552;DHT22;15752;49.560;8.708;2023-03-08T13:29:19;10.70;99.90
28552;DHT22;15752;49.560;8.708;2023-03-08T13:31:49;10.50;99.70
28552;DHT22;15752;49.560;8.708;2023-03-08T13:34:27;10.60;99.80
28552;DHT22;15752;49.560;8.708;2023-03-08T13:36:57;10.60;99.90
28552;DHT22;15752;49.560;8.708;2023-03-08T13:39:27;10.70;99.80
28552;DHT22;15752;49.560;8.708;2023-03-08T13:42:08;10.70;99.80
28552;DHT22;15752;49.560;8.708;2023-03-08T13:44:39;10.80;99.90
28552;DHT22;15752;49.560;8.708;2023-03-08T13:47:20;10.80;99.90
28552;DHT22;15752;49.560;8.708;2023-03-08T13:49:54;10.90;99.90
28552;DHT22;15752;49.560;8.708;2023-03-08T13:52:26;10.90;99.90
28552;DHT22;15752;49.560;8.708;2023-03-08T13:54:57;11.00;99.90
28552;DHT22;15752;49.560;8.708;2023-03-08T13:57:29;11.00;99.90
28552;DHT22;15752;49.560;8.708;2023-03-08T14:00:08;11.00;99.90
28552;DHT22;15752;49.560;8.708;2023-03-08T14:02:49;11.30;99.90
28552;DHT22;15752;49.560;8.708;2023-03-08T14:05:19;11.10;99.90
28552;DHT22;15752;49.560;8.708;2023-03-08T14:07:57;11.20;99.90
28552;DHT22;15752;49.560;8.708;2023-03-08T14:10:40;11.20;99.90
28552;DHT22;15752;49.560;8.708;2023-03-08T14:13:15;11.30;99.90
28552;DHT22;15752;49.560;8.708;2023-03-08T14:15:49;11.60;99.90
28552;DHT22;15752;49.560;8.708;2023-03-08T14:18:21;11.40;99.90
28552;DHT22;15752;49.560;8.708;2023-03-08T14:21:03;11.40;99.90
28552;DHT22;15752;49.560;8.708;2023-03-08T14:23:37;11.40;99.90
28552;DHT22;15752;49.560;8.708;2023-03-08T14:26:26;11.50;99.90
28552;DHT22;15752;49.560;8.708;2023-03-08T14:29:18;11.50;99.90
28552;DHT22;15752;49.560;8.708;2023-03-08T14:32:02;11.50;99.90
28552;DHT22;15752;49.560;8.708;2023-03-08T14:34:33;11.60;99.90
28552;DHT22;15752;49.560;8.708;2023-03-08T14:37:11;11.60;99.90
28552;DHT22;15752;49.560;8.708;2023-03-08T14:39:43;11.70;99.90
28552;DHT22;15752;49.560;8.708;2023-03-08T14:42:19;11.70;99.90
28552;DHT22;15752;49.560;8.708;2023-03-08T14:44:51;11.80;99.90
28552;DHT22;15752;49.560;8.708;2023-03-08T14:47:24;11.80;99.90
28552;DHT22;15752;49.560;8.708;2023-03-08T14:49:54;11.80;99.90
28552;DHT22;15752;49.560;8.708;2023-03-08T14:52:27;11.80;99.90
28552;DHT22;15752;49.560;8.708;2023-03-08T14:54:56;12.00;99.90
28552;DHT22;15752;49.560;8.708;2023-03-08T14:57:27;12.10;99.90
28552;DHT22;15752;49.560;8.708;2023-03-08T15:00:04;12.20;99.90
28552;DHT22;15752;49.560;8.708;2023-03-08T15:02:41;11.90;99.90
28552;DHT22;15752;49.560;8.708;2023-03-08T15:05:14;12.10;99.90
28552;DHT22;15752;49.560;8.708;2023-03-08T15:07:55;12.00;99.90
28552;DHT22;15752;49.560;8.708;2023-03-08T15:10:27;12.30;99.90
28552;DHT22;15752;49.560;8.708;2023-03-08T15:12:57;12.20;99.90
28552;DHT22;15752;49.560;8.708;2023-03-08T15:15:25;12.10;99.90
28552;DHT22;15752;49.560;8.708;2023-03-08T15:17:55;12.20;99.90
28552;DHT22;15752;49.560;8.708;2023-03-08T15:20:23;12.20;99.90
28552;DHT22;15752;49.560;8.708;2023-03-08T15:22:54;12.20;99.90
28552;DHT22;15752;49.560;8.708;2023-03-08T15:25:24;12.40;99.90
28552;DHT22;15752;49.560;8.708;2023-03-08T15:27:53;12.30;99.90
28552;DHT22;15752;49.560;8.708;2023-03-08T15:30:24;12.30;99.90
28552;DHT22;15752;49.560;8.708;2023-03-08T15:32:55;12.60;99.90
28552;DHT22;15752;49.560;8.708;2023-03-08T15:35:25;12.30;99.90
28552;DHT22;15752;49.560;8.708;2023-03-08T15:37:54;12.40;99.90
28552;DHT22;15752;49.560;8.708;2023-03-08T15:40:24;12.40;99.90
28552;DHT22;15752;49.560;8.708;2023-03-08T15:42:54;12.40;99.90
28552;DHT22;15752;49.560;8.708;2023-03-08T15:45:22;12.50;99.90
28552;DHT22;15752;49.560;8.708;2023-03-08T15:47:56;12.50;99.90
28552;DHT22;15752;49.560;8.708;2023-03-08T15:50:26;12.50;99.90
28552;DHT22;15752;49.560;8.708;2023-03-08T15:52:55;12.50;99.90
28552;DHT22;15752;49.560;8.708;2023-03-08T15:55:25;12.50;99.90
28552;DHT22;15752;49.560;8.708;2023-03-08T15:57:55;12.50;99.90
28552;DHT22;15752;49.560;8.708;2023-03-08T16:00:24;12.60;99.90
28552;DHT22;15752;49.560;8.708;2023-03-08T16:02:53;12.60;99.90
28552;DHT22;15752;49.560;8.708;2023-03-08T16:05:24;12.60;99.90
28552;DHT22;15752;49.560;8.708;2023-03-08T16:07:55;12.60;99.90
28552;DHT22;15752;49.560;8.708;2023-03-08T16:10:25;12.60;99.90
28552;DHT22;15752;49.560;8.708;2023-03-08T16:12:55;12.70;99.90
28552;DHT22;15752;49.560;8.708;2023-03-08T16:15:23;12.70;99.90
28552;DHT22;15752;49.560;8.708;2023-03-08T16:17:52;12.70;99.90
28552;DHT22;15752;49.560;8.708;2023-03-08T16:20:20;12.70;99.90
28552;DHT22;15752;49.560;8.708;2023-03-08T16:22:50;12.70;99.90